sensor_id;sensor_type;location;lat;lon;timestamp;temperature;humidity
2767;DHT22;1391;46.74287300;11.63683300;2023-07-13T00:00:50;16.90;99.90
2767;DHT22;1391;46.74287300;11.63683300;2023-07-13T00:03:17;17.20;99.90
2767;DHT22;1391;46.74287300;11.63683300;2023-07-13T00:05:44;17.20;99.90
2767;DHT22;1391;46.74287300;11.63683300;2023-07-13T00:08:11;16.80;99.90
2767;DHT22;1391;46.74287300;11.63683300;2023-07-13T00:10:41;17.30;99.90
2767;DHT22;1391;46.74287300;11.63683300;2023-07-13T00:13:09;16.50;99.90
2767;DHT22;1391;46.74287300;11.63683300;2023-07-13T00:15:36;16.70;99.90
2767;DHT22;1391;46.74287300;11.63683300;2023-07-13T00:18:03;16.80;99.90
2767;DHT22;1391;46.74287300;11.63683300;2023-07-13T00:20:30;16.90;99.90
2767;DHT22;1391;46.74287300;11.63683300;2023-07-13T00:22:59;16.70;99.90
2767;DHT22;1391;46.74287300;11.63683300;2023-07-13T00:25:26;16.80;99.90
2767;DHT22;1391;46.74287300;11.63683300;2023-07-13T00:27:55;16.80;99.90
2767;DHT22;1391;46.74287300;11.63683300;2023-07-13T00:30:22;16.90;99.90
2767;DHT22;1391;46.74287300;11.63683300;2023-07-13T00:32:49;16.70;99.90
2767;DHT22;1391;46.74287300;11.63683300;2023-07-13T00:35:17;16.80;99.90
2767;DHT22;1391;46.74287300;11.63683300;2023-07-13T00:37:44;16.60;99.90
2767;DHT22;1391;46.74287300;11.63683300;2023-07-13T00:40:13;16.80;99.90
2767;DHT22;1391;46.74287300;11.63683300;2023-07-13T00:42:44;16.80;99.90
2767;DHT22;1391;46.74287300;11.63683300;2023-07-13T00:48:38;16.90;99.90
2767;DHT22;1391;46.74287300;11.63683300;2023-07-13T00:51:05;16.90;99.90
2767;DHT22;1391;46.74287300;11.63683300;2023-07-13T00:53:34;16.70;99.90
2767;DHT22;1391;46.74287300;11.63683300;2023-07-13T00:56:01;16.80;99.90
2767;DHT22;1391;46.74287300;11.63683300;2023-07-13T00:58:30;16.80;99.90
2767;DHT22;1391;46.74287300;11.63683300;2023-07-13T01:00:57;16.80;99.90
2767;DHT22;1391;46.74287300;11.63683300;2023-07-13T01:03:26;16.90;99.90
2767;DHT22;1391;46.74287300;11.63683300;2023-07-13T01:05:53;16.70;99.90
2767;DHT22;1391;46.74287300;11.63683300;2023-07-13T01:08:20;16.80;99.90
2767;DHT22;1391;46.74287300;11.63683300;2023-07-13T01:10:52;16.80;99.90
2767;DHT22;1391;46.74287300;11.63683300;2023-07-13T01:13:20;16.80;99.90
2767;DHT22;1391;46.74287300;11.63683300;2023-07-13T01:15:50;16.90;99.90
2767;DHT22;1391;46.74287300;11.63683300;2023-07-13T01:18:20;16.80;99.90
2767;DHT22;1391;46.74287300;11.63683300;2023-07-13T01:20:55;16.80;99.90
2767;DHT22;1391;46.74287300;11.63683300;2023-07-13T01:23:25;16.40;99.90
2767;DHT22;1391;46.74287300;11.63683300;2023-07-13T01:25:53;16.80;99.90
2767;DHT22;1391;46.74287300;11.63683300;2023-07-13T01:28:21;16.40;99.90
2767;DHT22;1391;46.74287300;11.63683300;2023-07-13T01:30:53;16.80;99.90
2767;DHT22;1391;46.74287300;11.63683300;2023-07-13T01:33:21;16.80;99.90
2767;DHT22;1391;46.74287300;11.63683300;2023-07-13T01:35:49;16.80;99.90
2767;DHT22;1391;46.74287300;11.63683300;2023-07-13T01:38:19;16.70;99.90
2767;DHT22;1391;46.74287300;11.63683300;2023-07-13T01:40:48;16.80;99.90
2767;DHT22;1391;46.74287300;11.63683300;2023-07-13T01:43:15;16.40;99.90
2767;DHT22;1391;46.74287300;11.63683300;2023-07-13T01:45:43;16.70;99.90
2767;DHT22;1391;46.74287300;11.63683300;2023-07-13T01:48:10;16.80;99.90
2767;DHT22;1391;46.74287300;11.63683300;2023-07-13T01:50:38;16.40;99.90
2767;DHT22;1391;46.74287300;11.63683300;2023-07-13T01:53:05;16.70;99.90
2767;DHT22;1391;46.74287300;11.63683300;2023-07-13T01:55:34;16.80;99.90
2767;DHT22;1391;46.74287300;11.63683300;2023-07-13T01:58:02;16.40;99.90
2767;DHT22;1391;46.74287300;11.63683300;2023-07-13T02:00:30;16.40;99.90
2767;DHT22;1391;46.74287300;11.63683300;2023-07-13T02:02:57;16.80;99.90
2767;DHT22;1391;46.74287300;11.63683300;2023-07-13T02:05:25;16.50;99.90
2767;DHT22;1391;46.74287300;11.63683300;2023-07-13T02:07:52;16.20;99.90
2767;DHT22;1391;46.74287300;11.63683300;2023-07-13T02:10:19;16.00;99.90
2767;DHT22;1391;46.74287300;11.63683300;2023-07-13T02:12:49;16.50;99.90
2767;DHT22;1391;46.74287300;11.63683300;2023-07-13T02:15:17;16.70;99.90
2767;DHT22;1391;46.74287300;11.63683300;2023-07-13T02:17:44;15.90;99.90
2767;DHT22;1391;46.74287300;11.63683300;2023-07-13T02:20:12;16.70;99.90
2767;DHT22;1391;46.74287300;11.63683300;2023-07-13T02:22:39;15.90;99.90
2767;DHT22;1391;46.74287300;11.63683300;2023-07-13T02:25:06;16.20;99.90
2767;DHT22;1391;46.74287300;11.63683300;2023-07-13T02:27:34;16.00;99.90
2767;DHT22;1391;46.74287300;11.63683300;2023-07-13T02:30:03;16.00;99.90
2767;DHT22;1391;46.74287300;11.63683300;2023-07-13T02:32:31;16.20;99.90
2767;DHT22;1391;46.74287300;11.63683300;2023-07-13T02:34:59;16.10;99.90
2767;DHT22;1391;46.74287300;11.63683300;2023-07-13T02:37:26;16.30;99.90
2767;DHT22;1391;46.74287300;11.63683300;2023-07-13T02:39:53;15.90;99.90
2767;DHT22;1391;46.74287300;11.63683300;2023-07-13T02:42:20;16.70;99.90
2767;DHT22;1391;46.74287300;11.63683300;2023-07-13T02:44:48;15.90;99.90
2767;DHT22;1391;46.74287300;11.63683300;2023-07-13T02:47:17;15.90;99.90
2767;DHT22;1391;46.74287300;11.63683300;2023-07-13T02:49:44;16.30;99.90
2767;DHT22;1391;46.74287300;11.63683300;2023-07-13T02:52:11;15.90;99.90
2767;DHT22;1391;46.74287300;11.63683300;2023-07-13T02:54:39;15.90;99.90
2767;DHT22;1391;46.74287300;11.63683300;2023-07-13T02:57:06;16.20;99.90
2767;DHT22;1391;46.74287300;11.63683300;2023-07-13T02:59:33;16.00;99.90
2767;DHT22;1391;46.74287300;11.63683300;2023-07-13T03:02:01;16.00;99.90
2767;DHT22;1391;46.74287300;11.63683300;2023-07-13T03:04:30;16.10;99.90
2767;DHT22;1391;46.74287300;11.63683300;2023-07-13T03:06:57;15.90;99.90
2767;DHT22;1391;46.74287300;11.63683300;2023-07-13T03:09:24;16.20;99.90
2767;DHT22;1391;46.74287300;11.63683300;2023-07-13T03:11:53;16.10;99.90
2767;DHT22;1391;46.74287300;11.63683300;2023-07-13T03:14:21;15.80;99.90
2767;DHT22;1391;46.74287300;11.63683300;2023-07-13T03:16:48;15.90;99.90
2767;DHT22;1391;46.74287300;11.63683300;2023-07-13T03:19:16;15.80;99.90
2767;DHT22;1391;46.74287300;11.63683300;2023-07-13T03:21:44;15.80;99.90
2767;DHT22;1391;46.74287300;11.63683300;2023-07-13T03:24:11;15.50;99.90
2767;DHT22;1391;46.74287300;11.63683300;2023-07-13T03:26:39;16.20;99.90
2767;DHT22;1391;46.74287300;11.63683300;2023-07-13T03:29:06;16.00;99.90
2767;DHT22;1391;46.74287300;11.63683300;2023-07-13T03:31:34;16.20;99.90
2767;DHT22;1391;46.74287300;11.63683300;2023-07-13T03:34:02;15.60;99.90
2767;DHT22;1391;46.74287300;11.63683300;2023-07-13T03:36:30;15.50;99.90
2767;DHT22;1391;46.74287300;11.63683300;2023-07-13T03:39:02;15.60;99.90
2767;DHT22;1391;46.74287300;11.63683300;2023-07-13T03:41:31;15.80;99.90
2767;DHT22;1391;46.74287300;11.63683300;2023-07-13T03:43:59;15.50;99.90
2767;DHT22;1391;46.74287300;11.63683300;2023-07-13T03:46:26;15.40;99.90
2767;DHT22;1391;46.74287300;11.63683300;2023-07-13T03:48:53;15.60;99.90
2767;DHT22;1391;46.74287300;11.63683300;2023-07-13T03:51:20;15.40;99.90
2767;DHT22;1391;46.74287300;11.63683300;2023-07-13T03:53:47;15.60;99.90
2767;DHT22;1391;46.74287300;11.63683300;2023-07-13T03:56:17;15.50;99.90
2767;DHT22;1391;46.74287300;11.63683300;2023-07-13T03:58:46;15.50;99.90
2767;DHT22;1391;46.74287300;11.63683300;2023-07-13T04:01:15;15.50;99.90
2767;DHT22;1391;46.74287300;11.63683300;2023-07-13T04:03:44;15.40;99.90
2767;DHT22;1391;46.74287300;11.63683300;2023-07-13T04:06:15;15.70;99.90
2767;DHT22;1391;46.74287300;11.63683300;2023-07-13T04:08:47;15.40;99.90
2767;DHT22;1391;46.74287300;11.63683300;2023-07-13T04:11:18;15.70;99.90
2767;DHT22;1391;46.74287300;11.63683300;2023-07-13T04:13:46;15.40;99.90
2767;DHT22;1391;46.74287300;11.63683300;2023-07-13T04:16:15;15.30;99.90
2767;DHT22;1391;46.74287300;11.63683300;2023-07-13T04:18:43;15.50;99.90
2767;DHT22;1391;46.74287300;11.63683300;2023-07-13T04:21:11;15.50;99.90
2767;DHT22;1391;46.74287300;11.63683300;2023-07-13T04:23:39;15.40;99.90
2767;DHT22;1391;46.74287300;11.63683300;2023-07-13T04:26:07;15.70;99.90
2767;DHT22;1391;46.74287300;11.63683300;2023-07-13T04:28:35;15.30;99.90
2767;DHT22;1391;46.74287300;11.63683300;2023-07-13T04:31:02;15.50;99.90
2767;DHT22;1391;46.74287300;11.63683300;2023-07-13T04:33:30;15.40;99.90
2767;DHT22;1391;46.74287300;11.63683300;2023-07-13T04:35:57;16.10;99.90
2767;DHT22;1391;46.74287300;11.63683300;2023-07-13T04:38:26;15.40;99.90
2767;DHT22;1391;46.74287300;11.63683300;2023-07-13T04:40:56;16.00;99.90
2767;DHT22;1391;46.74287300;11.63683300;2023-07-13T04:43:26;16.20;99.90
2767;DHT22;1391;46.74287300;11.63683300;2023-07-13T04:45:56;16.00;99.90
2767;DHT22;1391;46.74287300;11.63683300;2023-07-13T04:48:24;16.10;99.90
2767;DHT22;1391;46.74287300;11.63683300;2023-07-13T04:50:55;15.80;99.90
2767;DHT22;1391;46.74287300;11.63683300;2023-07-13T04:53:23;16.30;99.90
2767;DHT22;1391;46.74287300;11.63683300;2023-07-13T04:55:51;15.90;99.90
2767;DHT22;1391;46.74287300;11.63683300;2023-07-13T04:58:18;16.20;99.90
2767;DHT22;1391;46.74287300;11.63683300;2023-07-13T05:00:47;15.90;99.90
2767;DHT22;1391;46.74287300;11.63683300;2023-07-13T05:03:15;16.30;99.90
2767;DHT22;1391;46.74287300;11.63683300;2023-07-13T05:05:42;16.70;99.90
2767;DHT22;1391;46.74287300;11.63683300;2023-07-13T05:08:10;16.70;99.90
2767;DHT22;1391;46.74287300;11.63683300;2023-07-13T05:10:37;16.70;99.90
2767;DHT22;1391;46.74287300;11.63683300;2023-07-13T05:13:04;16.80;99.90
2767;DHT22;1391;46.74287300;11.63683300;2023-07-13T05:15:33;16.40;99.90
2767;DHT22;1391;46.74287300;11.63683300;2023-07-13T05:18:00;16.80;99.90
2767;DHT22;1391;46.74287300;11.63683300;2023-07-13T05:20:29;16.40;99.90
2767;DHT22;1391;46.74287300;11.63683300;2023-07-13T05:22:56;16.30;99.90
2767;DHT22;1391;46.74287300;11.63683300;2023-07-13T05:25:24;16.30;99.90
2767;DHT22;1391;46.74287300;11.63683300;2023-07-13T05:27:51;16.70;99.90
2767;DHT22;1391;46.74287300;11.63683300;2023-07-13T05:30:18;16.30;99.90
2767;DHT22;1391;46.74287300;11.63683300;2023-07-13T05:32:46;16.80;99.90
2767;DHT22;1391;46.74287300;11.63683300;2023-07-13T05:35:13;16.40;99.90
2767;DHT22;1391;46.74287300;11.63683300;2023-07-13T05:37:41;16.90;99.90
2767;DHT22;1391;46.74287300;11.63683300;2023-07-13T05:40:09;16.80;99.90
2767;DHT22;1391;46.74287300;11.63683300;2023-07-13T05:42:36;16.80;99.90
2767;DHT22;1391;46.74287300;11.63683300;2023-07-13T05:45:04;16.80;99.90
2767;DHT22;1391;46.74287300;11.63683300;2023-07-13T05:47:33;16.40;99.90
2767;DHT22;1391;46.74287300;11.63683300;2023-07-13T05:50:01;16.80;99.90
2767;DHT22;1391;46.74287300;11.63683300;2023-07-13T05:52:28;17.30;99.90
2767;DHT22;1391;46.74287300;11.63683300;2023-07-13T05:54:57;16.90;99.90
2767;DHT22;1391;46.74287300;11.63683300;2023-07-13T05:57:24;17.10;99.90
2767;DHT22;1391;46.74287300;11.63683300;2023-07-13T05:59:51;17.10;99.90
2767;DHT22;1391;46.74287300;11.63683300;2023-07-13T06:02:18;17.20;99.90
2767;DHT22;1391;46.74287300;11.63683300;2023-07-13T06:04:45;17.20;99.90
2767;DHT22;1391;46.74287300;11.63683300;2023-07-13T06:07:12;17.20;99.90
2767;DHT22;1391;46.74287300;11.63683300;2023-07-13T06:09:39;17.10;99.90
2767;DHT22;1391;46.74287300;11.63683300;2023-07-13T06:12:09;17.00;99.90
2767;DHT22;1391;46.74287300;11.63683300;2023-07-13T06:14:36;17.30;99.90
2767;DHT22;1391;46.74287300;11.63683300;2023-07-13T06:17:03;17.40;99.90
2767;DHT22;1391;46.74287300;11.63683300;2023-07-13T06:19:31;17.20;99.90
2767;DHT22;1391;46.74287300;11.63683300;2023-07-13T06:21:58;17.10;99.90
2767;DHT22;1391;46.74287300;11.63683300;2023-07-13T06:24:26;17.40;99.90
2767;DHT22;1391;46.74287300;11.63683300;2023-07-13T06:26:53;17.10;99.90
2767;DHT22;1391;46.74287300;11.63683300;2023-07-13T06:29:22;17.30;99.90
2767;DHT22;1391;46.74287300;11.63683300;2023-07-13T06:31:49;17.00;99.90
2767;DHT22;1391;46.74287300;11.63683300;2023-07-13T06:34:17;17.30;99.90
2767;DHT22;1391;46.74287300;11.63683300;2023-07-13T06:36:44;17.30;99.90
2767;DHT22;1391;46.74287300;11.63683300;2023-07-13T06:39:11;17.40;99.90
2767;DHT22;1391;46.74287300;11.63683300;2023-07-13T06:41:38;17.20;99.90
2767;DHT22;1391;46.74287300;11.63683300;2023-07-13T06:44:06;17.00;99.90
2767;DHT22;1391;46.74287300;11.63683300;2023-07-13T06:46:34;17.30;99.90
2767;DHT22;1391;46.74287300;11.63683300;2023-07-13T06:49:01;17.40;99.90
2767;DHT22;1391;46.74287300;11.63683300;2023-07-13T06:51:29;17.20;99.90
2767;DHT22;1391;46.74287300;11.63683300;2023-07-13T06:53:56;17.50;99.90
2767;DHT22;1391;46.74287300;11.63683300;2023-07-13T06:56:23;17.90;99.90
2767;DHT22;1391;46.74287300;11.63683300;2023-07-13T06:58:50;18.40;99.90
2767;DHT22;1391;46.74287300;11.63683300;2023-07-13T07:01:18;18.00;99.90
2767;DHT22;1391;46.74287300;11.63683300;2023-07-13T07:03:46;18.40;99.90
2767;DHT22;1391;46.74287300;11.63683300;2023-07-13T07:06:19;18.50;99.90
2767;DHT22;1391;46.74287300;11.63683300;2023-07-13T07:08:49;18.40;99.90
2767;DHT22;1391;46.74287300;11.63683300;2023-07-13T07:11:18;18.10;99.90
2767;DHT22;1391;46.74287300;11.63683300;2023-07-13T07:13:47;18.30;99.90
2767;DHT22;1391;46.74287300;11.63683300;2023-07-13T07:16:15;18.30;99.90
2767;DHT22;1391;46.74287300;11.63683300;2023-07-13T07:18:43;18.40;99.90
2767;DHT22;1391;46.74287300;11.63683300;2023-07-13T07:21:13;18.10;99.90
2767;DHT22;1391;46.74287300;11.63683300;2023-07-13T07:23:41;18.30;99.90
2767;DHT22;1391;46.74287300;11.63683300;2023-07-13T07:26:09;18.40;99.90
2767;DHT22;1391;46.74287300;11.63683300;2023-07-13T07:28:37;18.40;99.90
2767;DHT22;1391;46.74287300;11.63683300;2023-07-13T07:31:04;18.20;99.90
2767;DHT22;1391;46.74287300;11.63683300;2023-07-13T07:33:32;18.10;99.90
2767;DHT22;1391;46.74287300;11.63683300;2023-07-13T07:36:00;18.30;99.90
2767;DHT22;1391;46.74287300;11.63683300;2023-07-13T07:38:29;18.30;99.90
2767;DHT22;1391;46.74287300;11.63683300;2023-07-13T07:40:56;18.40;99.90
2767;DHT22;1391;46.74287300;11.63683300;2023-07-13T07:43:24;18.20;99.90
2767;DHT22;1391;46.74287300;11.63683300;2023-07-13T07:45:54;18.50;99.90
2767;DHT22;1391;46.74287300;11.63683300;2023-07-13T07:48:21;18.40;99.90
2767;DHT22;1391;46.74287300;11.63683300;2023-07-13T07:50:49;19.00;99.90
2767;DHT22;1391;46.74287300;11.63683300;2023-07-13T07:53:16;18.80;99.90
2767;DHT22;1391;46.74287300;11.63683300;2023-07-13T07:55:45;18.90;99.90
2767;DHT22;1391;46.74287300;11.63683300;2023-07-13T07:58:13;19.10;99.90
2767;DHT22;1391;46.74287300;11.63683300;2023-07-13T08:00:40;19.00;99.90
2767;DHT22;1391;46.74287300;11.63683300;2023-07-13T08:03:09;18.90;99.90
2767;DHT22;1391;46.74287300;11.63683300;2023-07-13T08:05:36;19.00;99.90
2767;DHT22;1391;46.74287300;11.63683300;2023-07-13T08:08:04;18.90;99.90
2767;DHT22;1391;46.74287300;11.63683300;2023-07-13T08:10:31;18.90;99.90
2767;DHT22;1391;46.74287300;11.63683300;2023-07-13T08:13:00;19.10;99.90
2767;DHT22;1391;46.74287300;11.63683300;2023-07-13T08:15:28;19.00;99.90
2767;DHT22;1391;46.74287300;11.63683300;2023-07-13T08:17:55;18.90;99.90
2767;DHT22;1391;46.74287300;11.63683300;2023-07-13T08:20:22;19.10;99.90
2767;DHT22;1391;46.74287300;11.63683300;2023-07-13T08:22:50;19.10;99.90
2767;DHT22;1391;46.74287300;11.63683300;2023-07-13T08:25:17;19.60;99.90
2767;DHT22;1391;46.74287300;11.63683300;2023-07-13T08:27:45;19.00;99.90
2767;DHT22;1391;46.74287300;11.63683300;2023-07-13T08:30:14;19.60;99.90
2767;DHT22;1391;46.74287300;11.63683300;2023-07-13T08:32:41;19.00;99.90
2767;DHT22;1391;46.74287300;11.63683300;2023-07-13T08:35:08;19.30;99.90
2767;DHT22;1391;46.74287300;11.63683300;2023-07-13T08:37:35;19.40;99.90
2767;DHT22;1391;46.74287300;11.63683300;2023-07-13T08:40:03;19.60;99.90
2767;DHT22;1391;46.74287300;11.63683300;2023-07-13T08:42:37;19.50;99.90
2767;DHT22;1391;46.74287300;11.63683300;2023-07-13T08:45:19;19.60;99.90
2767;DHT22;1391;46.74287300;11.63683300;2023-07-13T08:47:53;19.40;99.90
2767;DHT22;1391;46.74287300;11.63683300;2023-07-13T08:50:24;19.60;99.90
2767;DHT22;1391;46.74287300;11.63683300;2023-07-13T08:52:57;19.80;99.90
2767;DHT22;1391;46.74287300;11.63683300;2023-07-13T08:55:28;19.60;96.40
2767;DHT22;1391;46.74287300;11.63683300;2023-07-13T08:58:03;19.70;96.20
2767;DHT22;1391;46.74287300;11.63683300;2023-07-13T09:00:44;19.70;92.80
2767;DHT22;1391;46.74287300;11.63683300;2023-07-13T09:03:22;19.90;92.80
2767;DHT22;1391;46.74287300;11.63683300;2023-07-13T09:05:57;19.70;94.60
2767;DHT22;1391;46.74287300;11.63683300;2023-07-13T09:08:45;20.10;99.90
2767;DHT22;1391;46.74287300;11.63683300;2023-07-13T09:11:38;19.70;97.80
2767;DHT22;1391;46.74287300;11.63683300;2023-07-13T09:14:28;19.70;99.90
2767;DHT22;1391;46.74287300;11.63683300;2023-07-13T09:17:04;20.20;99.90
2767;DHT22;1391;46.74287300;11.63683300;2023-07-13T09:19:35;19.90;99.90
2767;DHT22;1391;46.74287300;11.63683300;2023-07-13T09:22:05;19.80;99.90
2767;DHT22;1391;46.74287300;11.63683300;2023-07-13T09:24:41;19.50;99.90
2767;DHT22;1391;46.74287300;11.63683300;2023-07-13T09:27:21;19.70;99.90
2767;DHT22;1391;46.74287300;11.63683300;2023-07-13T09:29:54;19.60;99.90
2767;DHT22;1391;46.74287300;11.63683300;2023-07-13T09:32:27;19.50;99.90
2767;DHT22;1391;46.74287300;11.63683300;2023-07-13T09:34:56;19.70;99.90
2767;DHT22;1391;46.74287300;11.63683300;2023-07-13T09:37:29;19.60;99.90
2767;DHT22;1391;46.74287300;11.63683300;2023-07-13T09:39:58;19.50;99.90
2767;DHT22;1391;46.74287300;11.63683300;2023-07-13T09:42:26;19.40;99.90
2767;DHT22;1391;46.74287300;11.63683300;2023-07-13T09:44:56;19.60;99.90
2767;DHT22;1391;46.74287300;11.63683300;2023-07-13T09:47:30;19.50;99.90
2767;DHT22;1391;46.74287300;11.63683300;2023-07-13T09:50:00;19.80;99.90
2767;DHT22;1391;46.74287300;11.63683300;2023-07-13T09:52:40;19.60;99.90
2767;DHT22;1391;46.74287300;11.63683300;2023-07-13T09:55:24;19.40;99.90
2767;DHT22;1391;46.74287300;11.63683300;2023-07-13T09:57:53;19.50;99.90
2767;DHT22;1391;46.74287300;11.63683300;2023-07-13T10:00:26;19.70;99.90
2767;DHT22;1391;46.74287300;11.63683300;2023-07-13T10:03:02;19.60;99.90
2767;DHT22;1391;46.74287300;11.63683300;2023-07-13T10:05:39;19.90;99.90
2767;DHT22;1391;46.74287300;11.63683300;2023-07-13T10:08:19;19.80;99.90
2767;DHT22;1391;46.74287300;11.63683300;2023-07-13T10:10:58;19.60;99.90
2767;DHT22;1391;46.74287300;11.63683300;2023-07-13T10:13:29;20.20;99.90
2767;DHT22;1391;46.74287300;11.63683300;2023-07-13T10:16:00;20.20;99.90
2767;DHT22;1391;46.74287300;11.63683300;2023-07-13T10:18:34;20.30;99.90
2767;DHT22;1391;46.74287300;11.63683300;2023-07-13T10:21:12;20.20;99.90
2767;DHT22;1391;46.74287300;11.63683300;2023-07-13T10:23:42;20.30;99.90
2767;DHT22;1391;46.74287300;11.63683300;2023-07-13T10:26:17;19.70;99.90
2767;DHT22;1391;46.74287300;11.63683300;2023-07-13T10:28:52;19.70;99.90
2767;DHT22;1391;46.74287300;11.63683300;2023-07-13T10:31:22;19.70;99.90
2767;DHT22;1391;46.74287300;11.63683300;2023-07-13T10:33:52;20.20;99.90
2767;DHT22;1391;46.74287300;11.63683300;2023-07-13T10:36:33;20.20;99.90
2767;DHT22;1391;46.74287300;11.63683300;2023-07-13T10:39:03;20.40;99.90
2767;DHT22;1391;46.74287300;11.63683300;2023-07-13T10:41:35;20.40;99.90
2767;DHT22;1391;46.74287300;11.63683300;2023-07-13T10:44:12;20.90;98.50
2767;DHT22;1391;46.74287300;11.63683300;2023-07-13T10:46:46;20.90;99.20
2767;DHT22;1391;46.74287300;11.63683300;2023-07-13T10:49:16;21.00;97.30
2767;DHT22;1391;46.74287300;11.63683300;2023-07-13T10:51:45;21.00;96.10
2767;DHT22;1391;46.74287300;11.63683300;2023-07-13T10:54:17;21.80;91.30
2767;DHT22;1391;46.74287300;11.63683300;2023-07-13T10:56:50;22.00;96.00
2767;DHT22;1391;46.74287300;11.63683300;2023-07-13T10:59:25;21.90;85.00
2767;DHT22;1391;46.74287300;11.63683300;2023-07-13T11:01:56;22.40;95.80
2767;DHT22;1391;46.74287300;11.63683300;2023-07-13T11:04:28;22.50;92.60
2767;DHT22;1391;46.74287300;11.63683300;2023-07-13T11:06:59;22.60;93.10
2767;DHT22;1391;46.74287300;11.63683300;2023-07-13T11:09:34;22.10;97.30
2767;DHT22;1391;46.74287300;11.63683300;2023-07-13T11:12:26;21.60;92.10
2767;DHT22;1391;46.74287300;11.63683300;2023-07-13T11:15:13;21.70;95.70
2767;DHT22;1391;46.74287300;11.63683300;2023-07-13T11:17:51;21.60;90.10
2767;DHT22;1391;46.74287300;11.63683300;2023-07-13T11:20:34;21.80;91.40
2767;DHT22;1391;46.74287300;11.63683300;2023-07-13T11:23:16;21.80;96.70
2767;DHT22;1391;46.74287300;11.63683300;2023-07-13T11:25:47;22.40;85.30
2767;DHT22;1391;46.74287300;11.63683300;2023-07-13T11:28:21;21.60;78.00
2767;DHT22;1391;46.74287300;11.63683300;2023-07-13T11:31:03;22.10;90.30
2767;DHT22;1391;46.74287300;11.63683300;2023-07-13T11:33:51;22.70;83.40
2767;DHT22;1391;46.74287300;11.63683300;2023-07-13T11:36:23;23.30;66.20
2767;DHT22;1391;46.74287300;11.63683300;2023-07-13T11:39:03;23.20;63.60
2767;DHT22;1391;46.74287300;11.63683300;2023-07-13T11:41:35;22.60;62.20
2767;DHT22;1391;46.74287300;11.63683300;2023-07-13T11:44:12;23.40;68.10
2767;DHT22;1391;46.74287300;11.63683300;2023-07-13T11:46:45;23.30;63.20
2767;DHT22;1391;46.74287300;11.63683300;2023-07-13T11:49:16;23.30;66.50
2767;DHT22;1391;46.74287300;11.63683300;2023-07-13T11:51:46;22.70;62.90
2767;DHT22;1391;46.74287300;11.63683300;2023-07-13T11:54:23;22.70;74.20
2767;DHT22;1391;46.74287300;11.63683300;2023-07-13T11:56:54;23.30;64.00
2767;DHT22;1391;46.74287300;11.63683300;2023-07-13T11:59:23;23.30;66.60
2767;DHT22;1391;46.74287300;11.63683300;2023-07-13T12:01:52;23.60;67.40
2767;DHT22;1391;46.74287300;11.63683300;2023-07-13T12:04:23;23.40;59.10
2767;DHT22;1391;46.74287300;11.63683300;2023-07-13T12:06:57;23.40;58.30
2767;DHT22;1391;46.74287300;11.63683300;2023-07-13T12:09:30;24.10;61.00
2767;DHT22;1391;46.74287300;11.63683300;2023-07-13T12:11:58;24.10;53.60
2767;DHT22;1391;46.74287300;11.63683300;2023-07-13T12:14:26;23.30;55.80
2767;DHT22;1391;46.74287300;11.63683300;2023-07-13T12:16:55;23.20;63.90
2767;DHT22;1391;46.74287300;11.63683300;2023-07-13T12:19:24;23.30;68.90
2767;DHT22;1391;46.74287300;11.63683300;2023-07-13T12:21:56;23.40;63.80
2767;DHT22;1391;46.74287300;11.63683300;2023-07-13T12:24:25;23.30;62.50
2767;DHT22;1391;46.74287300;11.63683300;2023-07-13T12:26:54;22.50;70.50
2767;DHT22;1391;46.74287300;11.63683300;2023-07-13T12:29:25;23.30;65.80
2767;DHT22;1391;46.74287300;11.63683300;2023-07-13T12:31:52;23.30;66.40
2767;DHT22;1391;46.74287300;11.63683300;2023-07-13T12:34:22;22.70;65.00
2767;DHT22;1391;46.74287300;11.63683300;2023-07-13T12:36:52;22.30;67.30
2767;DHT22;1391;46.74287300;11.63683300;2023-07-13T12:39:23;22.10;66.60
2767;DHT22;1391;46.74287300;11.63683300;2023-07-13T12:41:53;21.70;68.60
2767;DHT22;1391;46.74287300;11.63683300;2023-07-13T12:44:26;22.00;73.60
2767;DHT22;1391;46.74287300;11.63683300;2023-07-13T12:46:58;22.00;76.60
2767;DHT22;1391;46.74287300;11.63683300;2023-07-13T12:49:29;21.60;86.50
2767;DHT22;1391;46.74287300;11.63683300;2023-07-13T12:52:02;21.70;83.90
2767;DHT22;1391;46.74287300;11.63683300;2023-07-13T12:54:32;21.70;95.90
2767;DHT22;1391;46.74287300;11.63683300;2023-07-13T12:57:00;21.70;98.10
2767;DHT22;1391;46.74287300;11.63683300;2023-07-13T12:59:32;21.80;91.50
2767;DHT22;1391;46.74287300;11.63683300;2023-07-13T13:02:02;21.70;98.10
2767;DHT22;1391;46.74287300;11.63683300;2023-07-13T13:04:49;21.70;99.90
2767;DHT22;1391;46.74287300;11.63683300;2023-07-13T13:07:16;21.60;99.90
2767;DHT22;1391;46.74287300;11.63683300;2023-07-13T13:09:47;21.50;99.90
2767;DHT22;1391;46.74287300;11.63683300;2023-07-13T13:12:14;21.30;89.20
2767;DHT22;1391;46.74287300;11.63683300;2023-07-13T13:14:42;20.90;87.30
2767;DHT22;1391;46.74287300;11.63683300;2023-07-13T13:17:18;20.80;90.20
2767;DHT22;1391;46.74287300;11.63683300;2023-07-13T13:19:47;21.10;91.80
2767;DHT22;1391;46.74287300;11.63683300;2023-07-13T13:22:15;20.90;85.30
2767;DHT22;1391;46.74287300;11.63683300;2023-07-13T13:24:42;21.10;90.90
2767;DHT22;1391;46.74287300;11.63683300;2023-07-13T13:27:15;20.90;96.90
2767;DHT22;1391;46.74287300;11.63683300;2023-07-13T13:29:44;21.00;84.40
2767;DHT22;1391;46.74287300;11.63683300;2023-07-13T13:32:13;20.90;89.80
2767;DHT22;1391;46.74287300;11.63683300;2023-07-13T13:34:41;21.20;87.10
2767;DHT22;1391;46.74287300;11.63683300;2023-07-13T13:37:17;20.90;82.50
2767;DHT22;1391;46.74287300;11.63683300;2023-07-13T13:39:45;21.00;78.60
2767;DHT22;1391;46.74287300;11.63683300;2023-07-13T13:42:14;21.00;84.10
2767;DHT22;1391;46.74287300;11.63683300;2023-07-13T13:44:42;21.10;77.90
2767;DHT22;1391;46.74287300;11.63683300;2023-07-13T13:47:23;21.00;89.60
2767;DHT22;1391;46.74287300;11.63683300;2023-07-13T13:49:56;21.00;86.40
2767;DHT22;1391;46.74287300;11.63683300;2023-07-13T13:52:24;21.10;82.70